createdAt,value
2022-12-05T00:01:40.955Z,48.63
2022-12-05T00:04:13.486Z,50.05
2022-12-05T00:06:44.258Z,43.22
2022-12-05T00:09:14.411Z,44.30
2022-12-05T00:11:45.560Z,36.80
2022-12-05T00:14:14.350Z,43.13
2022-12-05T00:16:45.552Z,42.97
2022-12-05T00:19:15.930Z,46.30
2022-12-05T00:21:44.251Z,42.08
2022-12-05T00:24:16.175Z,41.47
2022-12-05T00:26:44.303Z,41.10
2022-12-05T00:29:12.665Z,43.33
2022-12-05T00:31:40.322Z,38.38
2022-12-05T00:34:07.633Z,42.60
2022-12-05T00:36:36.557Z,46.75
2022-12-05T00:39:11.012Z,44.65
2022-12-05T00:41:38.528Z,42.95
2022-12-05T00:44:06.205Z,40.40
2022-12-05T00:46:35.254Z,47.00
2022-12-05T00:49:06.539Z,46.13
2022-12-05T00:51:41.362Z,38.78
2022-12-05T00:54:14.170Z,43.40
2022-12-05T00:56:42.803Z,41.20
2022-12-05T00:59:19.793Z,42.67
2022-12-05T01:01:49.941Z,37.67
2022-12-05T01:04:23.378Z,41.70
2022-12-05T01:06:55.134Z,41.97
2022-12-05T01:09:23.389Z,38.28
2022-12-05T01:11:51.420Z,44.55
2022-12-05T01:14:23.861Z,42.22
2022-12-05T01:16:54.820Z,42.63
2022-12-05T01:19:30.772Z,39.60
2022-12-05T01:21:59.429Z,41.50
2022-12-05T01:24:29.570Z,42.63
2022-12-05T01:26:57.738Z,44.33
2022-12-05T01:29:26.021Z,39.75
2022-12-05T01:31:54.850Z,46.08
2022-12-05T01:34:22.732Z,39.75
2022-12-05T01:36:50.308Z,45.63
2022-12-05T01:39:17.781Z,41.35
2022-12-05T01:41:50.391Z,44.13
2022-12-05T01:44:18.086Z,41.00
2022-12-05T01:46:51.075Z,42.13
2022-12-05T01:49:38.826Z,42.90
2022-12-05T01:54:40.408Z,38.17
2022-12-05T01:57:13.547Z,43.97
2022-12-05T01:59:49.960Z,46.17
2022-12-05T02:02:18.100Z,44.83
2022-12-05T02:05:15.384Z,43.72
2022-12-05T02:07:45.340Z,39.67
2022-12-05T02:10:12.729Z,35.40
2022-12-05T02:12:41.158Z,45.67
2022-12-05T02:15:43.508Z,41.67
2022-12-05T02:18:49.395Z,40.88
2022-12-05T02:22:27.320Z,46.85
2022-12-05T02:25:31.168Z,42.55
2022-12-05T02:28:30.804Z,44.70
2022-12-05T02:31:11.110Z,45.55
2022-12-05T02:34:01.713Z,49.00
2022-12-05T02:36:57.404Z,48.28
2022-12-05T02:39:55.364Z,47.55
2022-12-05T02:42:49.269Z,48.50
2022-12-05T02:45:23.450Z,44.28
2022-12-05T02:47:54.668Z,51.00
2022-12-05T02:50:31.025Z,49.55
2022-12-05T02:53:09.105Z,51.72
2022-12-05T02:55:40.061Z,52.90
2022-12-05T02:58:21.955Z,53.78
2022-12-05T03:00:55.363Z,54.60
2022-12-05T03:03:24.784Z,48.03
2022-12-05T03:06:24.153Z,55.55
2022-12-05T03:09:20.372Z,53.80
2022-12-05T03:12:09.828Z,44.35
2022-12-05T03:14:50.377Z,46.78
2022-12-05T03:17:35.534Z,51.15
2022-12-05T03:20:20.508Z,62.60
2022-12-05T03:23:24.630Z,58.47
2022-12-05T03:26:14.951Z,55.05
2022-12-05T03:29:34.017Z,50.58
2022-12-05T03:32:42.253Z,57.35
2022-12-05T03:35:30.869Z,49.53
2022-12-05T03:38:14.651Z,55.40
2022-12-05T03:40:57.237Z,54.28
2022-12-05T03:44:01.290Z,57.60
2022-12-05T03:46:39.124Z,54.92
2022-12-05T03:49:38.263Z,52.40
2022-12-05T03:52:51.260Z,49.53
2022-12-05T03:55:27.889Z,53.80
2022-12-05T03:58:07.595Z,53.30
2022-12-05T04:00:44.016Z,52.50
2022-12-05T04:03:20.929Z,45.28
2022-12-05T04:06:02.338Z,48.63
2022-12-05T04:08:47.859Z,48.35
2022-12-05T04:11:23.208Z,51.97
2022-12-05T04:14:18.645Z,51.05
2022-12-05T04:17:04.689Z,56.08
2022-12-05T04:20:19.468Z,45.55
2022-12-05T04:22:47.583Z,50.90
2022-12-05T04:25:35.912Z,47.08
2022-12-05T04:28:44.130Z,53.92
2022-12-05T04:31:27.560Z,49.10
2022-12-05T04:34:07.283Z,45.80
2022-12-05T04:36:50.452Z,49.20
2022-12-05T04:39:37.287Z,49.30
2022-12-05T04:42:22.049Z,53.50
2022-12-05T04:45:08.260Z,48.25
2022-12-05T04:47:47.044Z,48.90
2022-12-05T04:50:17.842Z,46.40
2022-12-05T04:52:52.109Z,45.83
2022-12-05T04:55:26.225Z,44.00
2022-12-05T04:58:12.448Z,54.67
2022-12-05T05:01:02.173Z,48.55
2022-12-05T05:04:06.973Z,48.97
2022-12-05T05:06:37.990Z,46.25
2022-12-05T05:09:05.464Z,44.03
2022-12-05T05:11:35.954Z,42.03
2022-12-05T05:14:04.229Z,45.88
2022-12-05T05:16:37.756Z,41.88
2022-12-05T05:19:08.985Z,46.10
2022-12-05T05:21:40.790Z,40.60
2022-12-05T05:24:11.367Z,48.78
2022-12-05T05:26:43.395Z,44.03
2022-12-05T05:29:12.504Z,39.80
2022-12-05T05:31:41.632Z,36.97
2022-12-05T05:34:11.186Z,39.17
2022-12-05T05:36:39.221Z,38.47
2022-12-05T05:39:12.104Z,37.40
2022-12-05T05:41:39.601Z,41.00
2022-12-05T05:44:06.891Z,37.97
2022-12-05T05:46:35.942Z,41.15
2022-12-05T05:49:04.583Z,40.35
2022-12-05T05:51:32.252Z,38.83
2022-12-05T05:54:03.162Z,40.45
2022-12-05T05:56:30.684Z,36.63
2022-12-05T05:59:03.739Z,35.05
2022-12-05T06:01:32.126Z,39.15
2022-12-05T06:03:59.855Z,39.17
2022-12-05T06:06:27.682Z,37.17
2022-12-05T06:08:55.583Z,38.88
2022-12-05T06:11:28.402Z,39.40
2022-12-05T06:14:01.190Z,42.08
2022-12-05T06:16:31.529Z,39.33
2022-12-05T06:18:59.720Z,39.20
2022-12-05T06:21:30.592Z,36.88
2022-12-05T06:23:57.945Z,35.03
2022-12-05T06:26:25.157Z,36.22
2022-12-05T06:28:52.520Z,41.25
2022-12-05T06:31:24.604Z,40.70
2022-12-05T06:33:52.446Z,38.03
2022-12-05T06:36:22.512Z,35.60
2022-12-05T06:38:50.102Z,36.78
2022-12-05T06:41:20.679Z,36.78
2022-12-05T06:43:48.362Z,34.92
2022-12-05T06:46:16.595Z,34.00
2022-12-05T06:48:44.458Z,38.42
2022-12-05T06:51:16.364Z,34.70
2022-12-05T06:53:44.349Z,40.05
2022-12-05T06:56:17.400Z,33.03
2022-12-05T06:58:48.953Z,37.75
2022-12-05T07:01:38.801Z,31.38
2022-12-05T07:04:11.529Z,38.83
2022-12-05T07:06:46.150Z,37.78
2022-12-05T07:09:18.319Z,34.05
2022-12-05T07:11:52.121Z,32.53
2022-12-05T07:14:45.766Z,34.45
2022-12-05T07:17:07.307Z,37.10
2022-12-05T07:19:34.501Z,37.85
2022-12-05T07:22:01.752Z,37.50
2022-12-05T07:24:28.979Z,35.45
2022-12-05T07:26:56.122Z,34.83
2022-12-05T07:29:23.821Z,34.72
2022-12-05T07:31:51.087Z,35.35
2022-12-05T07:34:18.282Z,35.05
2022-12-05T07:36:45.573Z,36.58
2022-12-05T07:39:12.719Z,32.08
2022-12-05T07:41:39.932Z,38.17
2022-12-05T07:44:12.585Z,41.95
2022-12-05T07:46:40.295Z,34.40
2022-12-05T07:49:08.420Z,32.72
2022-12-05T07:51:36.660Z,39.08
2022-12-05T07:54:04.559Z,34.83
2022-12-05T07:56:31.691Z,37.88
2022-12-05T07:58:59.051Z,39.55
2022-12-05T08:01:29.338Z,34.40
2022-12-05T08:03:59.879Z,33.58
2022-12-05T08:06:31.066Z,39.10
2022-12-05T08:08:58.680Z,36.20
2022-12-05T08:11:35.971Z,38.40
2022-12-05T08:14:06.178Z,34.03
2022-12-05T08:16:33.656Z,42.13
2022-12-05T08:19:10.385Z,41.08
2022-12-05T08:21:37.751Z,39.85
2022-12-05T08:24:07.702Z,37.38
2022-12-05T08:26:36.779Z,37.08
2022-12-05T08:29:15.200Z,38.70
2022-12-05T08:31:49.754Z,43.75
2022-12-05T08:34:20.720Z,38.08
2022-12-05T08:36:48.856Z,38.70
2022-12-05T08:39:19.686Z,35.25
2022-12-05T08:41:48.787Z,35.35
2022-12-05T08:44:19.473Z,34.15
2022-12-05T08:46:50.120Z,35.45
2022-12-05T08:49:18.667Z,34.80
2022-12-05T08:51:46.286Z,33.28
2022-12-05T08:54:14.458Z,33.05
2022-12-05T08:56:41.655Z,38.42
2022-12-05T08:59:08.976Z,33.38
2022-12-05T09:01:38.788Z,35.17
2022-12-05T09:04:07.701Z,36.42
2022-12-05T09:06:36.637Z,34.40
2022-12-05T09:09:09.206Z,34.50
2022-12-05T09:11:48.832Z,34.45
2022-12-05T09:14:16.872Z,33.38
2022-12-05T09:16:48.462Z,34.40
2022-12-05T09:19:24.945Z,32.30
2022-12-05T09:21:52.119Z,32.30
2022-12-05T09:24:19.871Z,31.65
2022-12-05T09:26:47.427Z,31.85
2022-12-05T09:29:17.567Z,32.78
2022-12-05T09:31:50.032Z,29.15
2022-12-05T09:34:18.358Z,28.95
2022-12-05T09:36:55.743Z,29.75
2022-12-05T09:39:28.849Z,23.33
2022-12-05T09:42:38.933Z,21.70
2022-12-05T09:45:26.585Z,27.30
2022-12-05T09:48:22.547Z,19.95
2022-12-05T09:51:11.728Z,23.70
2022-12-05T09:53:43.336Z,20.55
2022-12-05T09:56:30.512Z,24.48
2022-12-05T09:59:02.537Z,19.10
2022-12-05T10:01:44.247Z,21.17
2022-12-05T10:04:35.409Z,19.83
2022-12-05T10:07:33.045Z,18.33
2022-12-05T10:10:43.237Z,17.50
2022-12-05T10:13:41.050Z,15.73
2022-12-05T10:16:38.624Z,17.77
2022-12-05T10:19:27.118Z,14.48
2022-12-05T10:22:20.264Z,16.48
2022-12-05T10:25:01.540Z,17.75
2022-12-05T10:27:40.500Z,10.30
2022-12-05T10:30:17.498Z,9.32
2022-12-05T10:33:07.949Z,10.87
2022-12-05T10:35:41.392Z,10.43
2022-12-05T10:38:27.721Z,10.80
2022-12-05T10:41:03.829Z,12.52
2022-12-05T10:43:35.053Z,10.65
2022-12-05T10:46:05.624Z,12.40
2022-12-05T10:48:41.898Z,12.23
2022-12-05T10:51:18.704Z,11.55
2022-12-05T10:53:52.268Z,10.23
2022-12-05T10:56:45.283Z,12.63
2022-12-05T10:59:27.049Z,11.52
2022-12-05T11:02:00.338Z,16.02
2022-12-05T11:04:45.702Z,13.52
2022-12-05T11:07:52.347Z,12.27
2022-12-05T11:10:40.966Z,12.30
2022-12-05T11:13:26.717Z,13.70
2022-12-05T11:15:55.616Z,14.48
2022-12-05T11:18:34.601Z,14.27
2022-12-05T11:21:14.800Z,14.35
2022-12-05T11:23:42.086Z,15.10
2022-12-05T11:26:37.820Z,13.95
2022-12-05T11:29:35.565Z,15.45
2022-12-05T11:32:16.728Z,13.52
2022-12-05T11:34:53.452Z,12.82
2022-12-05T11:37:36.049Z,12.63
2022-12-05T11:40:21.549Z,15.98
2022-12-05T11:43:24.281Z,13.30
2022-12-05T11:46:20.173Z,12.82
2022-12-05T11:49:35.068Z,12.57
2022-12-05T11:52:29.536Z,12.18
2022-12-05T11:55:07.428Z,13.52
2022-12-05T12:01:10.475Z,13.32
2022-12-05T12:04:28.667Z,14.63
2022-12-05T12:07:37.967Z,12.60
2022-12-05T12:10:48.010Z,12.23
2022-12-05T12:13:38.719Z,13.10
2022-12-05T12:17:39.619Z,13.82
2022-12-05T12:20:35.470Z,10.75
2022-12-05T12:23:50.072Z,16.55
2022-12-05T12:26:50.538Z,12.63
2022-12-05T12:29:47.765Z,11.85
2022-12-05T12:32:52.453Z,12.25
2022-12-05T12:36:03.810Z,15.15
2022-12-05T12:38:52.447Z,11.55
2022-12-05T12:42:06.967Z,10.63
2022-12-05T12:45:14.671Z,12.82
2022-12-05T12:48:03.953Z,12.23
2022-12-05T12:50:38.973Z,11.35
2022-12-05T12:53:47.425Z,14.60
2022-12-05T12:57:09.299Z,13.77
2022-12-05T12:59:54.593Z,13.52
2022-12-05T13:03:11.431Z,12.02
2022-12-05T13:06:05.030Z,14.85
2022-12-05T13:09:07.650Z,16.20
2022-12-05T13:11:42.077Z,13.10
2022-12-05T13:14:16.045Z,13.18
2022-12-05T13:16:50.826Z,12.68
2022-12-05T13:19:44.460Z,14.20
2022-12-05T13:22:13.524Z,14.02
2022-12-05T13:24:42.577Z,14.23
2022-12-05T13:27:36.811Z,15.10
2022-12-05T13:30:13.312Z,14.93
2022-12-05T13:32:42.551Z,13.55
2022-12-05T13:36:02.480Z,12.73
2022-12-05T13:38:59.169Z,14.60
2022-12-05T13:42:08.454Z,14.98
2022-12-05T13:47:59.083Z,13.65
2022-12-05T13:50:51.647Z,12.95
2022-12-05T13:53:32.627Z,15.23
2022-12-05T13:56:13.376Z,17.50
2022-12-05T13:58:57.959Z,16.77
2022-12-05T14:01:53.839Z,15.27
2022-12-05T14:04:50.355Z,15.90
2022-12-05T14:07:50.022Z,16.17
2022-12-05T14:10:29.823Z,17.02
2022-12-05T14:12:59.183Z,16.35
2022-12-05T14:15:43.071Z,16.88
2022-12-05T14:18:22.569Z,16.27
2022-12-05T14:21:47.227Z,16.75
2022-12-05T14:24:51.278Z,17.50
2022-12-05T14:28:20.761Z,17.10
2022-12-05T14:31:18.142Z,15.50
2022-12-05T14:33:45.740Z,17.85
2022-12-05T14:36:30.889Z,17.42
2022-12-05T14:38:59.514Z,17.75
2022-12-05T14:41:35.476Z,15.93
2022-12-05T14:44:08.376Z,18.17
2022-12-05T14:46:36.212Z,17.15
2022-12-05T14:50:02.504Z,16.88
2022-12-05T14:52:34.022Z,16.23
2022-12-05T14:55:18.681Z,15.32
2022-12-05T14:57:50.334Z,18.63
2022-12-05T15:00:23.883Z,17.35
2022-12-05T15:02:55.554Z,18.75
2022-12-05T15:05:29.843Z,17.80
2022-12-05T15:08:00.257Z,19.27
2022-12-05T15:10:38.814Z,17.73
2022-12-05T15:13:25.106Z,17.42
2022-12-05T15:16:06.345Z,17.40
2022-12-05T15:18:56.369Z,19.63
2022-12-05T15:21:39.166Z,17.30
2022-12-05T15:24:15.976Z,17.88
2022-12-05T15:26:59.135Z,20.77
2022-12-05T15:29:32.750Z,20.42
2022-12-05T15:32:11.779Z,20.77
2022-12-05T15:35:05.129Z,19.35
2022-12-05T15:37:58.903Z,17.55
2022-12-05T15:40:36.983Z,19.90
2022-12-05T15:43:37.372Z,17.88
2022-12-05T15:46:31.900Z,19.80
2022-12-05T15:49:01.187Z,23.75
2022-12-05T15:51:38.290Z,23.67
2022-12-05T15:54:32.308Z,20.70
2022-12-05T15:57:19.810Z,20.20
2022-12-05T16:00:06.500Z,24.42
2022-12-05T16:03:02.886Z,22.23
2022-12-05T16:05:47.610Z,20.58
2022-12-05T16:08:15.277Z,19.83
2022-12-05T16:10:43.755Z,20.98
2022-12-05T16:13:19.715Z,21.10
2022-12-05T16:15:53.265Z,21.67
2022-12-05T16:18:32.588Z,20.05
2022-12-05T16:20:59.863Z,17.48
2022-12-05T16:23:33.816Z,21.73
2022-12-05T16:26:13.051Z,26.52
2022-12-05T16:28:40.358Z,20.58
2022-12-05T16:31:08.031Z,21.95
2022-12-05T16:33:40.181Z,24.85
2022-12-05T16:36:13.240Z,22.70
2022-12-05T16:38:45.854Z,22.45
2022-12-05T16:41:17.074Z,20.55
2022-12-05T16:43:46.225Z,23.58
2022-12-05T16:46:13.570Z,19.67
2022-12-05T16:48:48.645Z,23.33
2022-12-05T16:51:28.716Z,26.75
2022-12-05T16:53:56.980Z,23.73
2022-12-05T16:56:31.436Z,20.10
2022-12-05T16:59:03.624Z,23.70
2022-12-05T17:01:35.654Z,20.40
2022-12-05T17:04:11.073Z,21.83
2022-12-05T17:06:39.423Z,22.15
2022-12-05T17:09:06.693Z,20.85
2022-12-05T17:11:38.542Z,21.00
2022-12-05T17:14:10.084Z,21.38
2022-12-05T17:16:37.267Z,17.65
2022-12-05T17:19:05.354Z,18.95
2022-12-05T17:21:34.700Z,16.73
2022-12-05T17:24:02.254Z,13.32
2022-12-05T17:26:29.834Z,14.60
2022-12-05T17:28:57.645Z,15.45
2022-12-05T17:31:26.248Z,14.88
2022-12-05T17:33:55.050Z,16.45
2022-12-05T17:36:22.701Z,14.23
2022-12-05T17:38:50.289Z,14.90
2022-12-05T17:41:24.370Z,9.25
2022-12-05T17:43:51.938Z,9.43
2022-12-05T17:46:23.712Z,9.32
2022-12-05T17:48:52.392Z,9.38
2022-12-05T17:51:21.331Z,8.45
2022-12-05T17:53:48.894Z,9.68
2022-12-05T17:56:16.559Z,10.27
2022-12-05T17:58:44.720Z,9.60
2022-12-05T18:01:18.664Z,8.68
2022-12-05T18:03:46.787Z,8.07
2022-12-05T18:06:16.166Z,9.50
2022-12-05T18:08:45.160Z,6.63
2022-12-05T18:11:15.450Z,8.02
2022-12-05T18:13:42.949Z,8.13
2022-12-05T18:16:10.411Z,10.20
2022-12-05T18:18:39.452Z,7.68
2022-12-05T18:21:12.729Z,7.32
2022-12-05T18:23:41.355Z,7.03
2022-12-05T18:26:10.844Z,8.98
2022-12-05T18:28:39.766Z,13.77
2022-12-05T18:31:11.689Z,10.00
2022-12-05T18:33:39.828Z,10.35
2022-12-05T18:36:19.768Z,9.55
2022-12-05T18:38:56.826Z,10.65
2022-12-05T18:41:28.732Z,10.02
2022-12-05T18:43:56.867Z,8.48
2022-12-05T18:46:24.589Z,7.75
2022-12-05T18:48:51.931Z,8.63
2022-12-05T18:51:24.118Z,7.97
2022-12-05T18:53:54.154Z,7.38
2022-12-05T18:56:28.057Z,9.18
2022-12-05T18:59:08.871Z,8.30
2022-12-05T19:01:40.966Z,9.15
2022-12-05T19:04:13.118Z,12.00
2022-12-05T19:06:47.588Z,11.85
2022-12-05T19:09:19.537Z,18.92
2022-12-05T19:11:50.810Z,43.80
2022-12-05T19:14:19.546Z,50.22
2022-12-05T19:16:56.489Z,35.88
2022-12-05T19:19:28.229Z,21.02
2022-12-05T19:21:56.102Z,16.23
2022-12-05T19:24:23.367Z,8.85
2022-12-05T19:26:50.629Z,8.82
2022-12-05T19:29:18.065Z,8.82
2022-12-05T19:31:45.689Z,9.40
2022-12-05T19:34:13.411Z,9.60
2022-12-05T19:36:45.606Z,8.50
2022-12-05T19:39:23.461Z,10.52
2022-12-05T19:41:51.970Z,10.95
2022-12-05T19:44:19.265Z,9.18
2022-12-05T19:46:47.869Z,10.95
2022-12-05T19:49:17.290Z,12.18
2022-12-05T19:51:45.846Z,10.15
2022-12-05T19:54:17.654Z,12.15
2022-12-05T19:56:45.252Z,8.85
2022-12-05T19:59:19.096Z,11.27
2022-12-05T20:01:46.621Z,12.20
2022-12-05T20:04:16.421Z,10.55
2022-12-05T20:06:49.846Z,11.48
2022-12-05T20:09:22.218Z,12.52
2022-12-05T20:11:55.852Z,10.52
2022-12-05T20:14:26.006Z,10.70
2022-12-05T20:16:54.212Z,13.38
2022-12-05T20:19:24.008Z,10.73
2022-12-05T20:21:51.460Z,11.80
2022-12-05T20:24:18.609Z,10.05
2022-12-05T20:26:46.001Z,12.30
2022-12-05T20:29:13.309Z,10.00
2022-12-05T20:31:43.271Z,13.52
2022-12-05T20:34:14.792Z,11.93
2022-12-05T20:36:43.677Z,15.63
2022-12-05T20:39:17.685Z,13.07
2022-12-05T20:41:45.693Z,16.80
2022-12-05T20:44:19.064Z,12.70
2022-12-05T20:46:49.795Z,12.10
2022-12-05T20:49:17.782Z,12.50
2022-12-05T20:51:49.001Z,14.70
2022-12-05T20:54:19.063Z,14.40
2022-12-05T20:56:46.788Z,14.85
2022-12-05T20:59:14.960Z,13.68
2022-12-05T21:01:42.464Z,10.45
2022-12-05T21:04:12.387Z,11.75
2022-12-05T21:06:42.983Z,10.30
2022-12-05T21:09:16.085Z,10.93
2022-12-05T21:11:44.168Z,9.55
2022-12-05T21:14:12.764Z,9.75
2022-12-05T21:16:40.006Z,11.48
2022-12-05T21:19:08.739Z,12.75
2022-12-05T21:21:36.095Z,12.95
2022-12-05T21:24:05.984Z,10.02
2022-12-05T21:26:35.392Z,12.38
2022-12-05T21:29:05.536Z,11.48
2022-12-05T21:31:40.959Z,10.18
2022-12-05T21:34:21.151Z,11.40
2022-12-05T21:36:48.709Z,9.20
2022-12-05T21:39:16.516Z,11.15
2022-12-05T21:41:43.687Z,11.80
2022-12-05T21:44:10.964Z,16.60
2022-12-05T21:46:39.048Z,10.85
2022-12-05T21:49:07.001Z,10.80
2022-12-05T21:51:34.208Z,13.20
2022-12-05T21:54:01.354Z,13.90
2022-12-05T21:56:29.549Z,12.95
2022-12-05T21:58:56.901Z,12.85
2022-12-05T22:01:28.548Z,13.00
2022-12-05T22:03:59.570Z,11.75
2022-12-05T22:06:28.343Z,11.27
2022-12-05T22:08:55.855Z,12.73
2022-12-05T22:11:25.114Z,12.00
2022-12-05T22:13:53.133Z,13.02
2022-12-05T22:16:21.657Z,12.02
2022-12-05T22:18:49.260Z,14.10
2022-12-05T22:21:21.588Z,12.32
2022-12-05T22:23:49.764Z,12.50
2022-12-05T22:26:24.037Z,13.77
2022-12-05T22:28:56.542Z,11.63
2022-12-05T22:31:25.133Z,10.80
2022-12-05T22:33:54.034Z,9.43
2022-12-05T22:36:21.324Z,9.88
2022-12-05T22:38:49.247Z,7.85
2022-12-05T22:41:27.127Z,8.60
2022-12-05T22:44:00.091Z,9.68
2022-12-05T22:46:29.189Z,11.85
2022-12-05T22:48:56.828Z,9.57
2022-12-05T22:51:24.924Z,9.73
2022-12-05T22:53:54.123Z,9.07
2022-12-05T22:56:25.997Z,9.23
2022-12-05T22:58:59.417Z,9.55
2022-12-05T23:01:35.509Z,10.55
2022-12-05T23:04:11.104Z,6.60
2022-12-05T23:06:39.665Z,6.72
2022-12-05T23:09:10.855Z,7.63
2022-12-05T23:11:38.623Z,5.78
2022-12-05T23:14:07.493Z,5.93
2022-12-05T23:16:35.167Z,8.13
2022-12-05T23:19:05.877Z,5.00
2022-12-05T23:21:40.641Z,8.13
2022-12-05T23:24:12.837Z,6.30
2022-12-05T23:26:46.625Z,6.05
2022-12-05T23:29:15.347Z,6.45
2022-12-05T23:31:43.756Z,5.15
2022-12-05T23:34:12.195Z,6.07
2022-12-05T23:36:39.848Z,5.53
2022-12-05T23:39:07.311Z,7.75
2022-12-05T23:41:34.858Z,5.70
2022-12-05T23:44:02.338Z,6.85
2022-12-05T23:46:30.725Z,4.53
2022-12-05T23:48:58.530Z,7.30
2022-12-05T23:51:30.410Z,7.90
2022-12-05T23:54:02.129Z,4.78
2022-12-05T23:56:33.304Z,5.97
2022-12-05T23:59:04.019Z,6.85
